createdAt,value
2022-08-30T00:01:03.217Z,20.50
2022-08-30T00:03:41.308Z,20.50
2022-08-30T00:06:09.640Z,20.40
2022-08-30T00:08:37.877Z,20.40
2022-08-30T00:11:06.306Z,20.40
2022-08-30T00:13:33.002Z,20.40
2022-08-30T00:15:59.889Z,20.30
2022-08-30T00:18:26.621Z,20.30
2022-08-30T00:20:53.434Z,20.30
2022-08-30T00:23:20.521Z,20.30
2022-08-30T00:25:47.322Z,20.30
2022-08-30T00:28:15.362Z,20.30
2022-08-30T00:30:43.219Z,20.30
2022-08-30T00:33:11.491Z,20.20
2022-08-30T00:35:39.924Z,20.30
2022-08-30T00:38:08.527Z,20.30
2022-08-30T00:40:35.858Z,20.30
2022-08-30T00:43:08.497Z,20.20
2022-08-30T00:45:40.857Z,20.30
2022-08-30T00:48:07.846Z,20.30
2022-08-30T00:50:41.446Z,20.20
2022-08-30T00:53:13.565Z,20.20
2022-08-30T00:55:44.308Z,20.10
2022-08-30T00:58:16.028Z,20.10
2022-08-30T01:00:43.270Z,20.10
2022-08-30T01:03:10.200Z,20.00
2022-08-30T01:05:39.712Z,20.00
2022-08-30T01:08:06.925Z,20.00
2022-08-30T01:10:35.825Z,20.00
2022-08-30T01:13:03.063Z,20.00
2022-08-30T01:15:32.615Z,20.00
2022-08-30T01:18:00.197Z,19.90
2022-08-30T01:20:45.918Z,19.90
2022-08-30T01:23:18.433Z,19.90
2022-08-30T01:25:48.977Z,19.90
2022-08-30T01:28:23.003Z,19.90
2022-08-30T01:30:49.969Z,19.90
2022-08-30T01:33:18.664Z,19.90
2022-08-30T01:35:54.891Z,19.90
2022-08-30T01:38:26.427Z,20.00
2022-08-30T01:40:59.589Z,20.00
2022-08-30T01:43:27.701Z,20.00
2022-08-30T01:45:54.612Z,20.00
2022-08-30T01:48:22.175Z,20.00
2022-08-30T01:50:56.014Z,20.10
2022-08-30T01:53:22.863Z,20.10
2022-08-30T01:55:49.600Z,20.10
2022-08-30T01:58:16.357Z,20.10
2022-08-30T02:00:43.128Z,20.10
2022-08-30T02:03:09.857Z,20.10
2022-08-30T02:05:36.842Z,20.20
2022-08-30T02:08:04.224Z,20.20
2022-08-30T02:10:31.637Z,20.20
2022-08-30T02:12:59.364Z,20.20
2022-08-30T02:15:26.379Z,20.20
2022-08-30T02:17:53.522Z,20.10
2022-08-30T02:20:20.359Z,20.10
2022-08-30T02:22:49.546Z,20.10
2022-08-30T02:25:20.985Z,20.00
2022-08-30T02:27:48.363Z,20.10
2022-08-30T02:30:15.242Z,20.00
2022-08-30T02:32:42.129Z,20.10
2022-08-30T02:35:09.471Z,20.00
2022-08-30T02:37:36.686Z,20.00
2022-08-30T02:40:05.040Z,20.00
2022-08-30T02:42:31.949Z,20.00
2022-08-30T02:44:59.343Z,20.00
2022-08-30T02:47:26.182Z,20.00
2022-08-30T02:49:52.941Z,19.90
2022-08-30T02:52:19.864Z,19.90
2022-08-30T02:54:55.210Z,19.90
2022-08-30T02:57:22.817Z,19.90
2022-08-30T02:59:49.861Z,19.90
2022-08-30T03:02:16.943Z,19.80
2022-08-30T03:04:46.857Z,19.80
2022-08-30T03:07:14.177Z,19.70
2022-08-30T03:09:41.084Z,19.70
2022-08-30T03:12:09.372Z,19.70
2022-08-30T03:14:39.001Z,19.70
2022-08-30T03:17:11.240Z,19.70
2022-08-30T03:19:44.241Z,19.60
2022-08-30T03:22:12.171Z,19.60
2022-08-30T03:24:39.008Z,19.60
2022-08-30T03:27:05.950Z,19.50
2022-08-30T03:29:32.902Z,19.50
2022-08-30T03:31:59.766Z,19.50
2022-08-30T03:34:27.649Z,19.50
2022-08-30T03:36:56.242Z,19.50
2022-08-30T03:39:24.676Z,19.40
2022-08-30T03:41:52.041Z,19.50
2022-08-30T03:44:19.358Z,19.40
2022-08-30T03:46:46.785Z,19.50
2022-08-30T03:49:13.966Z,19.50
2022-08-30T03:51:40.781Z,19.50
2022-08-30T03:54:07.577Z,19.40
2022-08-30T03:56:34.353Z,19.40
2022-08-30T03:59:01.387Z,19.40
2022-08-30T04:01:28.135Z,19.40
2022-08-30T04:03:56.620Z,19.30
2022-08-30T04:06:23.917Z,19.30
2022-08-30T04:08:50.925Z,19.20
2022-08-30T04:11:17.868Z,19.20
2022-08-30T04:13:44.629Z,19.20
2022-08-30T04:16:11.674Z,19.10
2022-08-30T04:18:38.765Z,19.10
2022-08-30T04:21:06.496Z,19.10
2022-08-30T04:23:33.293Z,19.00
2022-08-30T04:26:00.153Z,19.00
2022-08-30T04:28:27.864Z,19.00
2022-08-30T04:30:54.631Z,19.00
2022-08-30T04:33:21.693Z,19.00
2022-08-30T04:35:49.795Z,18.90
2022-08-30T04:38:18.029Z,18.90
2022-08-30T04:40:49.269Z,18.90
2022-08-30T04:43:16.762Z,18.90
2022-08-30T04:45:43.841Z,19.00
2022-08-30T04:48:10.682Z,18.90
2022-08-30T04:50:37.674Z,18.90
2022-08-30T04:53:04.757Z,18.90
2022-08-30T04:55:31.897Z,19.00
2022-08-30T04:57:58.789Z,19.00
2022-08-30T05:00:25.618Z,19.00
2022-08-30T05:02:52.667Z,19.00
2022-08-30T05:05:38.446Z,19.10
2022-08-30T05:08:06.031Z,19.10
2022-08-30T05:10:33.985Z,19.20
2022-08-30T05:13:00.719Z,19.20
2022-08-30T05:15:27.482Z,19.20
2022-08-30T05:17:54.232Z,19.20
2022-08-30T05:20:20.993Z,19.30
2022-08-30T05:22:53.368Z,19.30
2022-08-30T05:25:23.916Z,19.30
2022-08-30T05:27:51.189Z,19.20
2022-08-30T05:30:18.589Z,19.20
2022-08-30T05:32:46.998Z,19.20
2022-08-30T05:35:15.586Z,19.20
2022-08-30T05:37:42.797Z,19.20
2022-08-30T05:40:11.506Z,19.20
2022-08-30T05:42:41.397Z,19.10
2022-08-30T05:45:08.655Z,19.20
2022-08-30T05:47:35.957Z,19.10
2022-08-30T05:50:03.196Z,19.20
2022-08-30T05:52:30.490Z,19.10
2022-08-30T05:55:02.699Z,19.20
2022-08-30T05:57:33.673Z,19.10
2022-08-30T06:00:05.061Z,19.20
2022-08-30T06:02:31.954Z,19.10
2022-08-30T06:04:58.806Z,19.20
2022-08-30T06:07:25.558Z,19.20
2022-08-30T06:09:52.350Z,19.40
2022-08-30T06:12:19.076Z,19.40
2022-08-30T06:14:45.947Z,19.50
2022-08-30T06:17:12.820Z,19.60
2022-08-30T06:19:39.574Z,19.60
2022-08-30T06:22:06.401Z,19.70
2022-08-30T06:24:56.007Z,19.70
2022-08-30T06:27:19.903Z,19.70
2022-08-30T06:29:47.639Z,19.70
2022-08-30T06:32:14.374Z,19.70
2022-08-30T06:34:41.137Z,19.70
2022-08-30T06:37:07.862Z,19.60
2022-08-30T06:39:35.829Z,19.60
2022-08-30T06:42:02.783Z,19.60
2022-08-30T06:44:30.159Z,19.60
2022-08-30T06:46:56.944Z,19.60
2022-08-30T06:49:23.822Z,19.60
2022-08-30T06:51:51.464Z,19.70
2022-08-30T06:54:18.320Z,19.70
2022-08-30T06:57:00.370Z,19.80
2022-08-30T06:59:27.585Z,19.90
2022-08-30T07:01:55.284Z,20.00
2022-08-30T07:04:22.153Z,20.00
2022-08-30T07:06:49.096Z,20.10
2022-08-30T07:09:15.917Z,20.20
2022-08-30T07:11:42.690Z,20.20
2022-08-30T07:14:09.655Z,20.40
2022-08-30T07:16:36.707Z,20.40
2022-08-30T07:19:05.039Z,20.40
2022-08-30T07:21:43.731Z,20.50
2022-08-30T07:24:11.859Z,20.60
2022-08-30T07:26:49.775Z,20.70
2022-08-30T07:29:18.027Z,20.80
2022-08-30T07:31:45.576Z,20.80
2022-08-30T07:34:12.440Z,21.00
2022-08-30T07:36:40.057Z,21.00
2022-08-30T07:39:08.169Z,21.10
2022-08-30T07:41:38.570Z,21.20
2022-08-30T07:44:09.432Z,21.30
2022-08-30T07:46:38.043Z,21.40
2022-08-30T07:49:05.697Z,21.40
2022-08-30T07:51:38.918Z,21.50
2022-08-30T07:54:07.070Z,21.70
2022-08-30T07:56:34.192Z,21.80
2022-08-30T07:59:00.923Z,22.00
2022-08-30T08:01:27.682Z,22.10
2022-08-30T08:03:54.505Z,22.20
2022-08-30T08:06:23.293Z,22.30
2022-08-30T08:08:50.799Z,22.40
2022-08-30T08:11:24.638Z,22.50
2022-08-30T08:13:53.968Z,22.60
2022-08-30T08:16:26.492Z,22.50
2022-08-30T08:18:54.263Z,22.60
2022-08-30T08:21:22.802Z,22.70
2022-08-30T08:23:50.510Z,22.70
2022-08-30T08:26:18.469Z,22.80
2022-08-30T08:28:46.962Z,23.00
2022-08-30T08:31:19.502Z,23.10
2022-08-30T08:33:46.257Z,23.10
2022-08-30T08:36:13.469Z,23.30
2022-08-30T08:38:40.214Z,23.30
2022-08-30T08:41:32.453Z,23.40
2022-08-30T08:43:59.837Z,23.60
2022-08-30T08:46:41.070Z,23.70
2022-08-30T08:49:12.506Z,23.70
2022-08-30T08:51:59.046Z,23.70
2022-08-30T08:54:34.151Z,23.80
2022-08-30T08:57:01.060Z,23.90
2022-08-30T08:59:28.610Z,24.00
2022-08-30T09:02:02.853Z,24.20
2022-08-30T09:04:39.040Z,24.30
2022-08-30T09:07:23.584Z,24.40
2022-08-30T09:09:50.557Z,24.60
2022-08-30T09:12:17.576Z,24.80
2022-08-30T09:14:49.675Z,25.10
2022-08-30T09:17:18.351Z,25.20
2022-08-30T09:19:54.169Z,25.30
2022-08-30T09:22:39.462Z,25.30
2022-08-30T09:25:32.441Z,25.30
2022-08-30T09:28:12.449Z,25.30
2022-08-30T09:30:40.502Z,25.30
2022-08-30T09:33:20.253Z,25.50
2022-08-30T09:35:49.480Z,25.40
2022-08-30T09:38:21.302Z,25.10
2022-08-30T09:40:51.798Z,24.80
2022-08-30T09:43:18.475Z,24.70
2022-08-30T09:45:49.691Z,24.80
2022-08-30T09:48:37.768Z,25.10
2022-08-30T09:51:10.241Z,25.40
2022-08-30T09:54:17.244Z,25.70
2022-08-30T09:57:12.940Z,25.80
2022-08-30T09:59:52.217Z,26.10
2022-08-30T10:02:34.176Z,26.20
2022-08-30T10:05:15.747Z,26.20
2022-08-30T10:08:16.503Z,26.30
2022-08-30T10:11:15.985Z,26.60
2022-08-30T10:13:49.896Z,26.70
2022-08-30T10:16:39.913Z,26.70
2022-08-30T10:19:44.834Z,26.90
2022-08-30T10:22:19.069Z,27.00
2022-08-30T10:24:51.544Z,27.30
2022-08-30T10:27:23.780Z,27.50
2022-08-30T10:29:56.737Z,27.60
2022-08-30T10:32:29.763Z,27.60
2022-08-30T10:35:03.118Z,27.50
2022-08-30T10:37:34.250Z,27.50
2022-08-30T10:40:29.536Z,27.60
2022-08-30T10:43:01.176Z,27.50
2022-08-30T10:45:30.123Z,27.40
2022-08-30T10:48:13.798Z,27.10
2022-08-30T10:50:50.029Z,26.90
2022-08-30T10:53:21.332Z,26.60
2022-08-30T10:56:02.547Z,26.50
2022-08-30T10:58:31.417Z,26.50
2022-08-30T11:01:07.602Z,26.60
2022-08-30T11:04:03.039Z,26.60
2022-08-30T11:06:53.868Z,26.80
2022-08-30T11:09:39.749Z,27.10
2022-08-30T11:12:28.089Z,27.20
2022-08-30T11:14:55.326Z,27.40
2022-08-30T11:17:32.268Z,27.70
2022-08-30T11:20:02.530Z,27.70
2022-08-30T11:22:32.504Z,27.90
2022-08-30T11:25:09.981Z,28.10
2022-08-30T11:27:49.007Z,28.30
2022-08-30T11:30:27.565Z,28.40
2022-08-30T11:35:53.702Z,28.20
2022-08-30T11:38:26.463Z,28.10
2022-08-30T11:40:56.265Z,28.10
2022-08-30T11:43:36.713Z,27.90
2022-08-30T11:46:25.954Z,27.80
2022-08-30T11:48:55.257Z,27.80
2022-08-30T11:52:26.225Z,27.60
2022-08-30T11:55:13.867Z,27.80
2022-08-30T11:57:54.694Z,28.00
2022-08-30T12:00:51.315Z,28.20
2022-08-30T12:03:30.624Z,28.40
2022-08-30T12:06:02.610Z,28.60
2022-08-30T12:08:34.186Z,28.50
2022-08-30T12:11:06.652Z,28.70
2022-08-30T12:13:38.870Z,29.00
2022-08-30T12:16:09.288Z,29.00
2022-08-30T12:18:47.425Z,29.10
2022-08-30T12:21:20.215Z,29.30
2022-08-30T12:24:23.356Z,29.50
2022-08-30T12:26:51.489Z,29.50
2022-08-30T12:29:22.894Z,29.50
2022-08-30T12:32:22.306Z,29.50
2022-08-30T12:35:00.818Z,29.50
2022-08-30T12:37:36.374Z,29.80
2022-08-30T12:40:19.814Z,30.10
2022-08-30T12:42:56.950Z,29.90
2022-08-30T12:45:42.919Z,30.10
2022-08-30T12:48:15.634Z,29.80
2022-08-30T12:50:53.692Z,29.70
2022-08-30T12:53:33.857Z,30.00
2022-08-30T12:56:08.470Z,30.20
2022-08-30T12:58:38.934Z,30.20
2022-08-30T13:01:33.650Z,30.50
2022-08-30T13:04:20.822Z,30.60
2022-08-30T13:06:52.643Z,31.00
2022-08-30T13:09:32.445Z,31.40
2022-08-30T13:12:26.673Z,31.70
2022-08-30T13:15:08.705Z,31.90
2022-08-30T13:17:35.437Z,32.10
2022-08-30T13:20:17.104Z,32.20
2022-08-30T13:23:03.970Z,32.30
2022-08-30T13:25:32.965Z,32.00
2022-08-30T13:28:01.623Z,31.60
2022-08-30T13:30:29.192Z,31.70
2022-08-30T13:32:56.523Z,31.90
2022-08-30T13:35:23.735Z,32.10
2022-08-30T13:37:51.532Z,32.10
2022-08-30T13:40:20.031Z,32.50
2022-08-30T13:42:47.196Z,33.10
2022-08-30T13:48:02.339Z,33.00
2022-08-30T13:50:30.398Z,33.10
2022-08-30T13:52:57.587Z,32.60
2022-08-30T13:55:24.767Z,32.80
2022-08-30T13:57:55.426Z,33.30
2022-08-30T14:00:24.599Z,33.50
2022-08-30T14:02:55.936Z,33.50
2022-08-30T14:05:48.966Z,33.60
2022-08-30T14:11:11.774Z,33.40
2022-08-30T14:14:14.766Z,33.90
2022-08-30T14:16:28.557Z,33.60
2022-08-30T14:18:56.476Z,32.80
2022-08-30T14:21:24.307Z,32.30
2022-08-30T14:23:52.913Z,31.70
2022-08-30T14:26:26.981Z,31.00
2022-08-30T14:28:59.607Z,30.70
2022-08-30T14:31:26.569Z,30.40
2022-08-30T14:33:53.848Z,30.20
2022-08-30T14:36:20.716Z,30.10
2022-08-30T14:38:48.545Z,29.90
2022-08-30T14:41:15.975Z,29.70
2022-08-30T14:43:42.819Z,29.50
2022-08-30T14:46:10.845Z,29.20
2022-08-30T14:48:39.203Z,29.10
2022-08-30T14:51:24.119Z,29.10
2022-08-30T14:53:52.975Z,29.00
2022-08-30T14:56:21.967Z,29.00
2022-08-30T14:58:50.654Z,28.90
2022-08-30T15:01:18.146Z,28.70
2022-08-30T15:03:45.089Z,28.70
2022-08-30T15:06:12.210Z,28.80
2022-08-30T15:08:39.712Z,28.80
2022-08-30T15:11:11.227Z,28.80
2022-08-30T15:13:39.555Z,28.80
2022-08-30T15:16:14.406Z,28.80
2022-08-30T15:18:44.244Z,28.70
2022-08-30T15:21:11.246Z,28.60
2022-08-30T15:23:39.427Z,28.60
2022-08-30T15:26:09.447Z,28.60
2022-08-30T15:28:37.093Z,28.50
2022-08-30T15:31:08.754Z,28.60
2022-08-30T15:33:37.384Z,28.60
2022-08-30T15:36:08.314Z,28.60
2022-08-30T15:38:36.461Z,28.60
2022-08-30T15:41:09.213Z,28.50
2022-08-30T15:43:36.912Z,28.50
2022-08-30T15:46:25.693Z,28.40
2022-08-30T15:49:00.241Z,28.30
2022-08-30T15:51:27.279Z,28.10
2022-08-30T15:53:54.601Z,28.00
2022-08-30T15:56:21.684Z,28.00
2022-08-30T15:58:48.567Z,28.00
2022-08-30T16:01:16.229Z,28.00
2022-08-30T16:03:46.776Z,28.00
2022-08-30T16:06:18.413Z,27.90
2022-08-30T16:08:46.259Z,27.80
2022-08-30T16:11:15.567Z,27.70
2022-08-30T16:13:42.573Z,27.70
2022-08-30T16:16:11.333Z,27.80
2022-08-30T16:18:39.247Z,27.70
2022-08-30T16:21:08.802Z,27.70
2022-08-30T16:23:37.072Z,27.70
2022-08-30T16:26:04.730Z,27.80
2022-08-30T16:28:32.455Z,27.80
2022-08-30T16:30:59.438Z,27.80
2022-08-30T16:33:26.531Z,27.80
2022-08-30T16:35:55.561Z,27.60
2022-08-30T16:38:26.560Z,27.50
2022-08-30T16:40:53.989Z,27.50
2022-08-30T16:43:23.946Z,27.50
2022-08-30T16:45:50.745Z,27.40
2022-08-30T16:48:17.805Z,27.30
2022-08-30T16:50:46.358Z,27.30
2022-08-30T16:53:13.628Z,27.20
2022-08-30T16:55:41.336Z,27.10
2022-08-30T16:58:10.728Z,27.10
2022-08-30T17:00:39.060Z,26.90
2022-08-30T17:03:06.598Z,26.80
2022-08-30T17:05:37.157Z,26.70
2022-08-30T17:08:04.826Z,26.70
2022-08-30T17:10:33.126Z,26.60
2022-08-30T17:13:00.371Z,26.50
2022-08-30T17:15:27.219Z,26.50
2022-08-30T17:17:55.914Z,26.40
2022-08-30T17:20:23.337Z,26.40
2022-08-30T17:22:50.129Z,26.30
2022-08-30T17:25:17.522Z,26.30
2022-08-30T17:27:44.411Z,26.20
2022-08-30T17:30:11.811Z,26.20
2022-08-30T17:32:38.583Z,26.20
2022-08-30T17:35:07.349Z,26.20
2022-08-30T17:37:34.592Z,26.10
2022-08-30T17:40:04.532Z,26.10
2022-08-30T17:42:31.471Z,26.00
2022-08-30T17:45:02.342Z,25.90
2022-08-30T17:47:36.070Z,25.80
2022-08-30T17:50:05.063Z,25.80
2022-08-30T17:52:33.070Z,25.80
2022-08-30T17:55:00.213Z,25.70
2022-08-30T17:57:27.033Z,25.50
2022-08-30T17:59:57.333Z,25.50
2022-08-30T18:02:30.020Z,25.40
2022-08-30T18:04:58.233Z,25.40
2022-08-30T18:07:26.469Z,25.30
2022-08-30T18:09:53.912Z,25.30
2022-08-30T18:12:21.418Z,25.20
2022-08-30T18:14:52.906Z,25.10
2022-08-30T18:17:20.975Z,25.00
2022-08-30T18:19:47.806Z,25.00
2022-08-30T18:22:16.275Z,24.90
2022-08-30T18:24:43.457Z,24.80
2022-08-30T18:27:10.325Z,24.80
2022-08-30T18:29:38.185Z,24.70
2022-08-30T18:32:05.635Z,24.70
2022-08-30T18:34:35.894Z,24.60
2022-08-30T18:37:02.760Z,24.60
2022-08-30T18:39:34.634Z,24.50
2022-08-30T18:42:02.444Z,24.50
2022-08-30T18:44:33.080Z,24.50
2022-08-30T18:47:03.806Z,24.40
2022-08-30T18:49:34.220Z,24.40
2022-08-30T18:52:06.095Z,24.30
2022-08-30T18:54:38.454Z,24.30
2022-08-30T18:57:05.499Z,24.20
2022-08-30T19:02:19.570Z,24.20
2022-08-30T19:04:47.124Z,24.10
2022-08-30T19:07:16.239Z,24.10
2022-08-30T19:09:43.520Z,24.00
2022-08-30T19:12:12.223Z,24.00
2022-08-30T19:14:39.699Z,24.00
2022-08-30T19:17:07.546Z,24.00
2022-08-30T19:19:35.894Z,24.00
2022-08-30T19:22:13.133Z,23.90
2022-08-30T19:24:39.978Z,23.90
2022-08-30T19:27:07.034Z,23.90
2022-08-30T19:29:33.771Z,23.80
2022-08-30T19:32:00.487Z,23.80
2022-08-30T19:34:27.355Z,23.70
2022-08-30T19:36:54.735Z,23.70
2022-08-30T19:39:21.501Z,23.70
2022-08-30T19:41:49.098Z,23.70
2022-08-30T19:44:16.008Z,23.70
2022-08-30T19:46:42.796Z,23.60
2022-08-30T19:49:11.179Z,23.60
2022-08-30T19:51:38.985Z,23.60
2022-08-30T19:54:13.520Z,23.50
2022-08-30T19:56:40.493Z,23.50
2022-08-30T19:59:07.269Z,23.40
2022-08-30T20:01:34.206Z,23.40
2022-08-30T20:04:02.135Z,23.40
2022-08-30T20:06:30.357Z,23.40
2022-08-30T20:08:58.115Z,23.30
2022-08-30T20:11:27.665Z,23.30
2022-08-30T20:13:54.449Z,23.20
2022-08-30T20:16:21.185Z,23.20
2022-08-30T20:19:02.516Z,23.20
2022-08-30T20:21:30.743Z,23.20
2022-08-30T20:23:57.494Z,23.10
2022-08-30T20:24:29.936Z,24.20
2022-08-30T20:26:27.376Z,23.10
2022-08-30T20:29:01.953Z,23.10
2022-08-30T20:31:29.258Z,23.10
2022-08-30T20:33:56.187Z,23.00
2022-08-30T20:36:23.026Z,23.00
2022-08-30T20:38:50.101Z,23.00
2022-08-30T20:41:18.993Z,23.00
2022-08-30T20:43:46.874Z,23.00
2022-08-30T20:46:17.402Z,22.90
2022-08-30T20:48:45.431Z,22.90
2022-08-30T20:51:15.538Z,22.90
2022-08-30T20:53:43.213Z,22.80
2022-08-30T20:56:18.244Z,22.80
2022-08-30T20:58:45.724Z,22.80
2022-08-30T21:01:13.268Z,22.80
2022-08-30T21:03:40.966Z,22.80
2022-08-30T21:06:07.922Z,22.70
2022-08-30T21:08:34.880Z,22.70
2022-08-30T21:11:01.733Z,22.70
2022-08-30T21:13:28.650Z,22.70
2022-08-30T21:16:00.608Z,22.60
2022-08-30T21:18:32.979Z,22.60
2022-08-30T21:21:07.416Z,22.60
2022-08-30T21:23:35.884Z,22.60
2022-08-30T21:26:07.274Z,22.60
2022-08-30T21:28:34.189Z,22.60
2022-08-30T21:31:17.576Z,22.60
2022-08-30T21:33:44.899Z,22.60
2022-08-30T21:36:30.282Z,22.60
2022-08-30T21:39:00.750Z,22.60
2022-08-30T21:41:29.027Z,22.60
2022-08-30T21:44:01.445Z,22.60
2022-08-30T21:46:29.599Z,22.60
2022-08-30T21:48:59.128Z,22.60
2022-08-30T21:51:25.921Z,22.50
2022-08-30T21:53:52.683Z,22.50
2022-08-30T21:56:22.088Z,22.50
2022-08-30T21:58:50.030Z,22.50
2022-08-30T22:01:23.597Z,22.60
2022-08-30T22:03:55.442Z,22.50
2022-08-30T22:06:22.422Z,22.50
2022-08-30T22:08:53.406Z,22.50
2022-08-30T22:11:24.854Z,22.50
2022-08-30T22:13:53.203Z,22.50
2022-08-30T22:16:20.803Z,22.50
2022-08-30T22:18:47.952Z,22.40
2022-08-30T22:21:17.814Z,22.40
2022-08-30T22:23:45.054Z,22.40
2022-08-30T22:26:13.774Z,22.40
2022-08-30T22:28:41.017Z,22.40
2022-08-30T22:31:09.416Z,22.40
2022-08-30T22:33:36.739Z,22.40
2022-08-30T22:36:12.972Z,22.40
2022-08-30T22:38:40.280Z,22.40
2022-08-30T22:41:13.822Z,22.30
2022-08-30T22:43:40.652Z,22.40
2022-08-30T22:46:07.971Z,22.30
2022-08-30T22:48:40.000Z,22.30
2022-08-30T22:51:08.292Z,22.30
2022-08-30T22:53:35.362Z,22.30
2022-08-30T22:56:12.990Z,22.30
2022-08-30T22:58:39.807Z,22.30
2022-08-30T23:01:07.385Z,22.20
2022-08-30T23:03:35.368Z,22.20
2022-08-30T23:06:03.220Z,22.20
2022-08-30T23:08:30.007Z,22.20
2022-08-30T23:10:57.942Z,22.20
2022-08-30T23:13:26.082Z,22.10
2022-08-30T23:15:52.863Z,22.10
2022-08-30T23:18:19.902Z,22.10
2022-08-30T23:20:46.990Z,22.10
2022-08-30T23:23:32.510Z,22.00
2022-08-30T23:26:19.335Z,22.00
2022-08-30T23:29:04.906Z,22.00
2022-08-30T23:31:50.219Z,22.00
2022-08-30T23:34:35.629Z,22.00
2022-08-30T23:37:20.774Z,21.90
2022-08-30T23:40:06.327Z,21.90
2022-08-30T23:42:51.715Z,21.90
2022-08-30T23:45:37.291Z,21.90
2022-08-30T23:48:22.594Z,21.90
2022-08-30T23:51:07.896Z,21.80
2022-08-30T23:53:53.329Z,21.80
2022-08-30T23:56:38.731Z,21.80
2022-08-30T23:59:24.346Z,21.80
